Fdl, Wisconsin
Current Conditions -  °F | °C
As of 7:53 PM on Saturday 20 Dec 2014 (Local Time) from KFLD Reporting Station
Overcast Overcast  
Wind Chill: 25°   Ceiling: 2900
Heat Index: 30°   Visibility: 8mi
Dew Point: 25°   Wind: 5mph
Humidity: 82%   Direction: 200°SSW
Pressure: 30.22"   Gusts: NA
Location:  43.7436°N, 88.3886°W
Report Text: KFLD 210153Z AUTO 20004KT 8SM SCT024 BKN029 OVC035 M01/M04 A3022 RMK AO2 SLP246 T10111039
Loading
Personal Weather Stations






























Interactive Weather Map New forecast layout! Learn more

10-Day Weather Forecast

Advertisements
Track Severe Weather on mobile